createdAt,value
2019-03-22T00:02:24.783Z,77.77
2019-03-22T00:05:01.877Z,67.80
2019-03-22T00:07:33.159Z,73.97
2019-03-22T00:10:05.268Z,85.67
2019-03-22T00:12:37.039Z,68.77
2019-03-22T00:15:12.379Z,69.10
2019-03-22T00:21:15.006Z,70.77
2019-03-22T00:23:46.543Z,68.13
2019-03-22T00:26:17.964Z,58.27
2019-03-22T00:28:50.986Z,63.47
2019-03-22T00:31:24.089Z,60.83
2019-03-22T00:33:55.412Z,57.27
2019-03-22T00:36:27.169Z,70.97
2019-03-22T00:38:59.234Z,68.83
2019-03-22T00:41:33.881Z,62.50
2019-03-22T00:44:07.847Z,81.67
2019-03-22T00:46:40.025Z,74.93
2019-03-22T00:49:15.925Z,78.83
2019-03-22T00:55:31.243Z,67.93
2019-03-22T00:58:05.819Z,88.17
2019-03-22T01:04:22.704Z,85.80
2019-03-22T01:06:54.053Z,85.93
2019-03-22T01:09:25.385Z,92.37
2019-03-22T01:12:01.338Z,95.47
2019-03-22T01:14:32.986Z,83.60
2019-03-22T01:17:05.373Z,74.73
2019-03-22T01:19:39.680Z,81.87
2019-03-22T01:22:11.171Z,85.57
2019-03-22T01:24:45.797Z,77.97
2019-03-22T01:27:21.281Z,73.37
2019-03-22T01:29:56.215Z,78.93
2019-03-22T01:32:28.199Z,107.23
2019-03-22T01:34:59.553Z,111.33
2019-03-22T01:37:37.254Z,101.60
2019-03-22T01:40:11.246Z,90.20
2019-03-22T01:42:45.075Z,83.60
2019-03-22T01:45:16.975Z,102.47
2019-03-22T01:47:52.396Z,108.07
2019-03-22T01:50:25.095Z,83.20
2019-03-22T01:52:56.377Z,101.63
2019-03-22T01:55:35.545Z,100.23
2019-03-22T01:58:12.778Z,112.90
2019-03-22T02:00:48.441Z,84.20
2019-03-22T02:03:22.505Z,75.97
2019-03-22T02:05:53.877Z,80.47
2019-03-22T02:08:25.131Z,80.70
2019-03-22T02:10:58.829Z,89.53
2019-03-22T02:13:32.017Z,86.80
2019-03-22T02:16:03.534Z,79.87
2019-03-22T02:18:35.226Z,85.37
2019-03-22T02:21:06.862Z,94.17
2019-03-22T02:23:39.743Z,78.90
2019-03-22T02:26:13.031Z,90.27
2019-03-22T02:32:28.190Z,86.90
2019-03-22T02:35:02.236Z,78.73
2019-03-22T02:37:33.675Z,82.30
2019-03-22T02:40:09.811Z,87.00
2019-03-22T02:42:41.407Z,81.90
2019-03-22T02:45:12.917Z,90.77
2019-03-22T02:47:44.238Z,98.90
2019-03-22T02:50:20.727Z,100.77
2019-03-22T02:52:52.922Z,92.73
2019-03-22T02:55:26.870Z,90.43
2019-03-22T02:58:00.716Z,87.97
2019-03-22T03:00:31.857Z,84.73
2019-03-22T03:03:07.979Z,87.17
2019-03-22T03:05:47.687Z,85.40
2019-03-22T03:08:19.193Z,91.37
2019-03-22T03:10:52.283Z,90.30
2019-03-22T03:13:24.824Z,75.83
2019-03-22T03:15:58.529Z,76.60
2019-03-22T03:18:29.711Z,92.10
2019-03-22T03:21:06.876Z,91.17
2019-03-22T03:23:38.454Z,84.90
2019-03-22T03:26:09.708Z,88.20
2019-03-22T03:28:46.853Z,96.90
2019-03-22T03:31:18.038Z,92.30
2019-03-22T03:33:49.375Z,90.03
2019-03-22T03:36:20.619Z,93.33
2019-03-22T03:38:51.879Z,75.63
2019-03-22T03:41:26.257Z,87.43
2019-03-22T03:44:00.413Z,78.67
2019-03-22T03:50:16.837Z,71.97
2019-03-22T03:52:48.198Z,75.80
2019-03-22T03:59:04.309Z,77.97
2019-03-22T04:01:40.037Z,74.40
2019-03-22T04:04:17.519Z,72.63
2019-03-22T04:06:54.697Z,78.67
2019-03-22T04:09:30.430Z,75.13
2019-03-22T04:12:01.669Z,83.77
2019-03-22T04:14:32.892Z,81.10
2019-03-22T04:17:05.061Z,84.07
2019-03-22T04:19:36.330Z,85.37
2019-03-22T04:22:10.926Z,89.20
2019-03-22T04:24:48.566Z,83.27
2019-03-22T04:27:20.209Z,77.07
2019-03-22T04:29:51.728Z,75.07
2019-03-22T04:32:26.349Z,76.27
2019-03-22T04:38:31.967Z,82.10
2019-03-22T04:41:03.992Z,78.43
2019-03-22T04:43:38.233Z,81.50
2019-03-22T04:46:14.001Z,75.43
2019-03-22T04:48:48.375Z,77.97
2019-03-22T04:51:21.158Z,83.07
2019-03-22T04:53:57.988Z,78.77
2019-03-22T04:56:32.318Z,83.37
2019-03-22T04:59:18.567Z,76.37
2019-03-22T05:01:45.368Z,78.70
2019-03-22T05:04:18.501Z,80.53
2019-03-22T05:06:52.116Z,69.80
2019-03-22T05:13:08.828Z,83.73
2019-03-22T05:15:41.269Z,81.97
2019-03-22T05:18:12.949Z,79.97
2019-03-22T05:21:09.577Z,76.83
2019-03-22T05:27:38.511Z,77.80
2019-03-22T05:30:14.236Z,80.23
2019-03-22T05:32:46.713Z,81.23
2019-03-22T05:35:27.346Z,83.70
2019-03-22T05:38:01.805Z,87.30
2019-03-22T05:40:35.226Z,90.23
2019-03-22T05:43:06.404Z,83.67
2019-03-22T05:45:37.702Z,78.40
2019-03-22T05:48:09.075Z,77.40
2019-03-22T05:50:40.319Z,77.17
2019-03-22T05:53:11.680Z,72.37
2019-03-22T05:55:43.165Z,73.87
2019-03-22T05:58:14.878Z,78.10
2019-03-22T06:00:48.629Z,78.47
2019-03-22T06:03:25.103Z,72.23
2019-03-22T06:09:38.404Z,77.77
2019-03-22T06:16:07.955Z,66.67
2019-03-22T06:18:43.782Z,66.67
2019-03-22T06:21:16.524Z,61.63
2019-03-22T06:27:30.767Z,63.40
2019-03-22T06:30:02.316Z,58.17
2019-03-22T06:32:37.796Z,60.00
2019-03-22T06:35:22.334Z,60.70
2019-03-22T06:37:54.014Z,63.53
2019-03-22T06:40:25.790Z,61.87
2019-03-22T06:43:00.754Z,56.10
2019-03-22T06:49:37.179Z,57.37
2019-03-22T06:52:12.916Z,59.77
2019-03-22T06:54:45.335Z,56.43
2019-03-22T06:57:16.695Z,63.70
2019-03-22T06:59:47.978Z,60.13
2019-03-22T07:02:19.228Z,64.10
2019-03-22T07:08:50.072Z,61.27
2019-03-22T07:11:21.577Z,59.77
2019-03-22T07:13:55.392Z,72.30
2019-03-22T07:16:28.158Z,63.03
2019-03-22T07:19:01.291Z,58.90
2019-03-22T07:25:27.710Z,60.07
2019-03-22T07:28:01.437Z,56.63
2019-03-22T07:30:32.787Z,57.60
2019-03-22T07:33:07.138Z,55.93
2019-03-22T07:35:39.906Z,54.17
2019-03-22T07:38:11.938Z,52.33
2019-03-22T07:40:43.564Z,54.57
2019-03-22T07:43:15.525Z,48.47
2019-03-22T07:45:47.039Z,53.70
2019-03-22T07:52:00.825Z,50.40
2019-03-22T07:54:32.519Z,45.97
2019-03-22T07:57:05.192Z,46.97
2019-03-22T07:59:38.176Z,51.53
2019-03-22T08:02:16.446Z,48.17
2019-03-22T08:04:54.404Z,51.60
2019-03-22T08:07:27.859Z,49.83
2019-03-22T08:09:59.502Z,51.57
2019-03-22T08:12:30.877Z,52.97
2019-03-22T08:15:02.394Z,49.37
2019-03-22T08:17:35.247Z,46.57
2019-03-22T08:20:08.917Z,54.30
2019-03-22T08:22:44.175Z,55.73
2019-03-22T08:25:21.993Z,58.50
2019-03-22T08:27:58.591Z,52.57
2019-03-22T08:30:42.134Z,53.83
2019-03-22T08:33:08.698Z,54.07
2019-03-22T08:39:37.186Z,51.77
2019-03-22T08:42:16.136Z,48.80
2019-03-22T08:44:48.438Z,52.83
2019-03-22T08:51:17.205Z,52.70
2019-03-22T08:57:30.700Z,55.33
2019-03-22T09:00:05.923Z,53.23
2019-03-22T09:02:38.886Z,56.57
2019-03-22T09:05:10.338Z,56.03
2019-03-22T09:11:35.818Z,54.70
2019-03-22T09:14:07.204Z,55.30
2019-03-22T09:16:38.522Z,49.27
2019-03-22T09:19:10.976Z,60.67
2019-03-22T09:21:42.317Z,50.43
2019-03-22T09:24:13.731Z,49.77
2019-03-22T09:26:47.903Z,52.40
2019-03-22T09:29:21.846Z,53.40
2019-03-22T09:31:53.804Z,59.20
2019-03-22T09:34:34.048Z,50.50
2019-03-22T09:37:10.200Z,49.40
2019-03-22T09:39:44.896Z,58.43
2019-03-22T09:42:16.614Z,58.43
2019-03-22T09:48:44.131Z,59.07
2019-03-22T09:55:12.200Z,61.20
2019-03-22T09:57:35.112Z,52.70
2019-03-22T10:00:07.720Z,56.07
2019-03-22T10:02:39.109Z,53.93
2019-03-22T10:05:10.416Z,55.63
2019-03-22T10:07:43.374Z,57.37
2019-03-22T10:13:48.137Z,52.10
2019-03-22T10:16:20.928Z,55.53
2019-03-22T10:22:40.057Z,85.30
2019-03-22T10:25:11.061Z,65.53
2019-03-22T10:27:43.783Z,64.43
2019-03-22T10:30:15.777Z,69.97
2019-03-22T10:32:49.285Z,74.10
2019-03-22T10:35:26.522Z,69.50
2019-03-22T10:38:00.964Z,74.30
2019-03-22T10:40:31.195Z,85.80
2019-03-22T10:43:03.225Z,78.43
2019-03-22T10:45:36.582Z,77.93
2019-03-22T10:48:07.587Z,78.97
2019-03-22T10:50:41.602Z,70.27
2019-03-22T10:53:13.999Z,72.70
2019-03-22T10:55:46.972Z,72.90
2019-03-22T10:58:21.230Z,70.60
2019-03-22T11:00:52.323Z,64.83
2019-03-22T11:07:20.587Z,62.83
2019-03-22T11:09:53.758Z,53.73
2019-03-22T11:12:28.581Z,59.30
2019-03-22T11:15:02.315Z,56.53
2019-03-22T11:17:34.787Z,58.30
2019-03-22T11:20:09.115Z,53.90
2019-03-22T11:26:59.413Z,61.40
2019-03-22T11:29:35.168Z,63.40
2019-03-22T11:32:12.569Z,66.47
2019-03-22T11:34:42.695Z,68.87
2019-03-22T11:37:16.808Z,66.03
2019-03-22T11:39:48.574Z,62.03
2019-03-22T11:42:22.815Z,69.13
2019-03-22T11:44:57.514Z,67.57
2019-03-22T11:47:30.500Z,59.30
2019-03-22T11:50:01.906Z,61.33
2019-03-22T11:52:34.962Z,66.37
2019-03-22T11:55:08.550Z,66.27
2019-03-22T11:57:41.601Z,73.30
2019-03-22T12:04:08.970Z,64.97
2019-03-22T12:06:40.474Z,68.87
2019-03-22T12:09:18.655Z,74.13
2019-03-22T12:15:38.861Z,77.60
2019-03-22T12:18:11.951Z,79.80
2019-03-22T12:20:43.500Z,81.90
2019-03-22T12:23:15.874Z,86.43
2019-03-22T12:25:47.278Z,83.97
2019-03-22T12:31:48.699Z,83.97
2019-03-22T12:38:05.428Z,81.00
2019-03-22T12:40:43.362Z,85.03
2019-03-22T12:43:14.894Z,81.63
2019-03-22T12:49:29.256Z,77.07
2019-03-22T12:52:00.581Z,80.23
2019-03-22T12:54:36.777Z,78.97
2019-03-22T12:57:11.168Z,70.97
2019-03-22T13:03:27.776Z,70.87
2019-03-22T13:06:03.394Z,70.93
2019-03-22T13:12:18.247Z,64.27
2019-03-22T13:14:49.984Z,63.43
2019-03-22T13:21:05.158Z,61.23
2019-03-22T13:23:38.203Z,60.67
2019-03-22T13:26:09.567Z,62.43
2019-03-22T13:32:36.878Z,60.03
2019-03-22T13:35:09.845Z,62.97
2019-03-22T13:37:45.143Z,59.07
2019-03-22T13:40:17.802Z,59.83
2019-03-22T13:42:49.276Z,51.97
2019-03-22T13:45:20.949Z,53.23
2019-03-22T13:47:55.865Z,54.07
2019-03-22T13:54:03.947Z,50.20
2019-03-22T13:56:38.508Z,53.33
2019-03-22T13:59:13.442Z,53.40
2019-03-22T14:01:46.777Z,50.33
2019-03-22T14:04:18.406Z,48.33
2019-03-22T14:06:49.767Z,45.73
2019-03-22T14:09:22.025Z,43.50
2019-03-22T14:11:58.881Z,43.97
2019-03-22T14:14:31.783Z,44.80
2019-03-22T14:17:09.391Z,46.00
2019-03-22T14:19:43.903Z,43.30
2019-03-22T14:22:21.356Z,45.57
2019-03-22T14:24:52.761Z,49.07
2019-03-22T14:27:25.336Z,53.83
2019-03-22T14:29:56.654Z,51.00
2019-03-22T14:32:30.956Z,51.40
2019-03-22T14:35:06.071Z,53.40
2019-03-22T14:37:39.030Z,50.07
2019-03-22T14:44:24.962Z,46.17
2019-03-22T14:46:51.817Z,51.63
2019-03-22T14:49:23.285Z,49.37
2019-03-22T14:51:54.898Z,53.20
2019-03-22T14:54:31.987Z,54.77
2019-03-22T14:57:06.175Z,54.83
2019-03-22T14:59:39.075Z,55.13
2019-03-22T15:05:41.974Z,59.97
2019-03-22T15:08:13.624Z,63.73
2019-03-22T15:10:48.176Z,57.93
2019-03-22T15:13:24.335Z,61.00
2019-03-22T15:16:11.380Z,65.53
2019-03-22T15:18:51.387Z,61.40
2019-03-22T15:21:39.304Z,58.47
2019-03-22T15:24:22.485Z,65.20
2019-03-22T15:27:15.283Z,65.93
2019-03-22T15:30:10.797Z,62.03
2019-03-22T15:32:54.266Z,63.63
2019-03-22T15:35:44.830Z,66.43
2019-03-22T15:38:35.371Z,62.87
2019-03-22T15:41:06.964Z,69.43
2019-03-22T15:43:38.428Z,70.13
2019-03-22T15:46:14.737Z,77.57
2019-03-22T15:52:27.123Z,81.60
2019-03-22T15:54:59.670Z,84.40
2019-03-22T15:57:31.473Z,81.33
2019-03-22T16:00:03.177Z,80.70
2019-03-22T16:02:40.927Z,84.40
2019-03-22T16:05:14.924Z,83.27
2019-03-22T16:07:49.081Z,88.10
2019-03-22T16:10:23.012Z,88.10
2019-03-22T16:12:54.544Z,92.17
2019-03-22T16:15:29.531Z,87.00
2019-03-22T16:18:00.848Z,88.53
2019-03-22T16:20:39.355Z,89.90
2019-03-22T16:27:18.154Z,96.90
2019-03-22T16:29:58.778Z,93.40
2019-03-22T16:32:33.276Z,93.27
2019-03-22T16:35:07.974Z,82.67
2019-03-22T16:37:43.004Z,73.17
2019-03-22T16:40:24.041Z,76.83
2019-03-22T16:42:54.172Z,70.93
2019-03-22T16:45:40.469Z,61.67
2019-03-22T16:48:13.602Z,60.53
2019-03-22T16:50:45.483Z,48.43
2019-03-22T16:53:17.211Z,52.43
2019-03-22T16:59:36.589Z,53.07
2019-03-22T17:02:09.862Z,51.23
2019-03-22T17:04:43.066Z,49.87
2019-03-22T17:07:14.396Z,47.37
2019-03-22T17:09:45.929Z,53.17
2019-03-22T17:12:17.237Z,51.97
2019-03-22T17:14:52.990Z,52.97
2019-03-22T17:17:24.270Z,55.77
2019-03-22T17:23:51.381Z,56.80
2019-03-22T17:26:22.821Z,58.90
2019-03-22T17:28:58.736Z,54.30
2019-03-22T17:35:13.633Z,49.43
2019-03-22T17:37:49.356Z,53.37
2019-03-22T17:40:22.734Z,53.30
2019-03-22T17:42:57.271Z,56.87
2019-03-22T17:49:22.423Z,55.60
2019-03-22T17:55:36.569Z,51.90
2019-03-22T17:58:11.119Z,53.03
2019-03-22T18:00:46.484Z,58.23
2019-03-22T18:03:17.797Z,60.47
2019-03-22T18:05:51.592Z,54.93
2019-03-22T18:08:27.992Z,65.37
2019-03-22T18:14:47.851Z,64.20
2019-03-22T18:17:19.466Z,83.60
2019-03-22T18:23:36.016Z,66.43
2019-03-22T18:26:06.362Z,57.23
2019-03-22T18:28:40.379Z,56.27
2019-03-22T18:31:11.973Z,57.00
2019-03-22T18:33:45.119Z,55.10
2019-03-22T18:36:20.638Z,57.40
2019-03-22T18:38:51.852Z,69.17
2019-03-22T18:45:29.272Z,63.40
2019-03-22T18:51:55.242Z,63.23
2019-03-22T18:54:26.670Z,65.33
2019-03-22T19:00:53.275Z,70.73
2019-03-22T19:03:24.515Z,69.57
2019-03-22T19:05:59.855Z,71.53
2019-03-22T19:08:31.051Z,80.40
2019-03-22T19:11:02.346Z,80.67
2019-03-22T19:13:34.540Z,84.93
2019-03-22T19:16:05.746Z,85.00
2019-03-22T19:18:37.187Z,85.07
2019-03-22T19:21:11.634Z,89.57
2019-03-22T19:23:46.960Z,90.37
2019-03-22T19:26:18.845Z,92.07
2019-03-22T19:28:50.280Z,91.23
2019-03-22T19:31:21.784Z,90.87
2019-03-22T19:33:57.458Z,89.33
2019-03-22T19:36:29.145Z,87.87
2019-03-22T19:39:02.435Z,93.20
2019-03-22T19:41:35.136Z,95.50
2019-03-22T19:44:06.696Z,92.03
2019-03-22T19:50:21.509Z,100.53
2019-03-22T19:52:52.769Z,108.87
2019-03-22T19:55:26.755Z,97.67
2019-03-22T19:57:58.151Z,97.63
2019-03-22T20:00:35.121Z,94.67
2019-03-22T20:03:09.687Z,98.30
2019-03-22T20:05:44.533Z,90.97
2019-03-22T20:08:18.800Z,86.03
2019-03-22T20:15:01.949Z,104.47
2019-03-22T20:17:33.927Z,103.63
2019-03-22T20:20:06.487Z,95.37
2019-03-22T20:22:40.780Z,89.13
2019-03-22T20:25:17.249Z,101.13
2019-03-22T20:27:54.252Z,97.87
2019-03-22T20:30:28.589Z,96.30
2019-03-22T20:33:00.092Z,92.73
2019-03-22T20:39:16.838Z,91.83
2019-03-22T20:41:48.701Z,94.27
2019-03-22T20:48:04.688Z,88.60
2019-03-22T20:50:39.736Z,90.30
2019-03-22T20:53:11.111Z,94.47
2019-03-22T20:55:43.740Z,101.00
2019-03-22T20:58:19.901Z,91.83
2019-03-22T21:00:55.784Z,103.97
2019-03-22T21:03:30.643Z,104.43
2019-03-22T21:06:06.662Z,105.67
2019-03-22T21:08:38.133Z,103.83
2019-03-22T21:11:09.832Z,102.13
2019-03-22T21:13:41.254Z,110.10
2019-03-22T21:16:12.693Z,107.03
2019-03-22T21:18:44.032Z,106.77
2019-03-22T21:21:15.283Z,107.87
2019-03-22T21:23:47.178Z,109.87
2019-03-22T21:26:18.481Z,108.47
2019-03-22T21:28:49.720Z,116.37
2019-03-22T21:31:20.913Z,118.07
2019-03-22T21:33:52.377Z,145.43
2019-03-22T21:40:06.498Z,138.40
2019-03-22T21:46:21.176Z,159.60
2019-03-22T21:52:35.170Z,166.47
2019-03-22T21:55:06.631Z,187.63
2019-03-22T21:57:38.453Z,156.10
2019-03-22T22:04:04.506Z,139.57
2019-03-22T22:06:36.213Z,178.53
2019-03-22T22:09:15.015Z,149.10
2019-03-22T22:15:17.817Z,210.60
2019-03-22T22:21:56.183Z,155.33
2019-03-22T22:24:27.488Z,197.17
2019-03-22T22:27:01.258Z,190.73
2019-03-22T22:33:26.792Z,254.13
2019-03-22T22:35:59.829Z,225.33
2019-03-22T22:38:31.104Z,211.57
2019-03-22T22:41:07.546Z,211.97
2019-03-22T22:43:40.929Z,263.00
2019-03-22T22:46:15.899Z,231.07
2019-03-22T22:48:47.297Z,243.97
2019-03-22T22:51:18.596Z,235.17
2019-03-22T22:53:50.615Z,276.27
2019-03-22T22:56:21.974Z,261.73
2019-03-22T22:58:53.285Z,286.23
2019-03-22T23:01:24.576Z,277.07
2019-03-22T23:04:02.666Z,250.80
2019-03-22T23:06:33.866Z,245.90
2019-03-22T23:09:06.993Z,267.17
2019-03-22T23:11:41.442Z,215.17
2019-03-22T23:14:13.578Z,241.53
2019-03-22T23:16:46.579Z,248.67
2019-03-22T23:19:17.889Z,231.00
2019-03-22T23:21:49.113Z,271.47
2019-03-22T23:24:20.408Z,249.53
2019-03-22T23:26:51.669Z,246.50
2019-03-22T23:29:23.124Z,274.70
2019-03-22T23:31:56.293Z,304.97
2019-03-22T23:34:27.906Z,248.37
2019-03-22T23:36:59.166Z,290.17
2019-03-22T23:39:30.583Z,281.27
2019-03-22T23:42:03.147Z,283.73
2019-03-22T23:44:34.938Z,327.97
2019-03-22T23:47:06.520Z,298.50
2019-03-22T23:49:39.123Z,266.70
2019-03-22T23:52:12.689Z,311.23
2019-03-22T23:54:44.009Z,296.70
2019-03-22T23:57:20.594Z,314.93
2019-03-22T23:59:55.142Z,287.57
